sensor_id;sensor_type;location;lat;lon;timestamp;pressure;altitude;pressure_sealevel;temperature;humidity
3968;BME280;9221;42.646;23.380;2023-02-28T00:01:32;94904.59;;;7.41;100.00
3968;BME280;9221;42.646;23.380;2023-02-28T00:03:57;94903.16;;;7.37;100.00
3968;BME280;9221;42.646;23.380;2023-02-28T00:06:23;94975.97;;;7.67;100.00
3968;BME280;9221;42.646;23.380;2023-02-28T00:08:49;94965.72;;;7.96;100.00
3968;BME280;9221;42.646;23.380;2023-02-28T00:11:16;94950.69;;;7.99;100.00
3968;BME280;9221;42.646;23.380;2023-02-28T00:13:44;95050.06;;;7.82;100.00
3968;BME280;9221;42.646;23.380;2023-02-28T00:16:21;95001.50;;;7.65;100.00
3968;BME280;9221;42.646;23.380;2023-02-28T00:18:47;94968.84;;;7.47;100.00
3968;BME280;9221;42.646;23.380;2023-02-28T00:21:13;94969.81;;;7.45;100.00
3968;BME280;9221;42.646;23.380;2023-02-28T00:23:39;94960.88;;;7.25;100.00
3968;BME280;9221;42.646;23.380;2023-02-28T00:26:04;94898.34;;;6.75;100.00
3968;BME280;9221;42.646;23.380;2023-02-28T00:28:30;94958.41;;;7.13;100.00
3968;BME280;9221;42.646;23.380;2023-02-28T00:30:55;94978.88;;;7.19;100.00
3968;BME280;9221;42.646;23.380;2023-02-28T00:33:22;94959.91;;;7.38;100.00
3968;BME280;9221;42.646;23.380;2023-02-28T00:35:47;94906.13;;;7.32;100.00
3968;BME280;9221;42.646;23.380;2023-02-28T00:38:14;94985.78;;;7.97;100.00
3968;BME280;9221;42.646;23.380;2023-02-28T00:40:39;94922.47;;;7.79;100.00
3968;BME280;9221;42.646;23.380;2023-02-28T00:43:05;94959.66;;;8.28;100.00
3968;BME280;9221;42.646;23.380;2023-02-28T00:45:30;94940.22;;;8.20;100.00
3968;BME280;9221;42.646;23.380;2023-02-28T00:47:56;94969.50;;;8.36;100.00
3968;BME280;9221;42.646;23.380;2023-02-28T00:50:21;94943.19;;;7.94;99.60
3968;BME280;9221;42.646;23.380;2023-02-28T00:52:47;94886.59;;;8.01;99.02
3968;BME280;9221;42.646;23.380;2023-02-28T00:55:12;94931.56;;;8.29;98.55
3968;BME280;9221;42.646;23.380;2023-02-28T00:57:38;94914.50;;;8.02;97.98
3968;BME280;9221;42.646;23.380;2023-02-28T01:00:05;94934.28;;;8.06;98.17
3968;BME280;9221;42.646;23.380;2023-02-28T01:02:30;94925.53;;;7.96;97.82
3968;BME280;9221;42.646;23.380;2023-02-28T01:04:56;94901.16;;;7.94;98.34
3968;BME280;9221;42.646;23.380;2023-02-28T01:07:22;94963.28;;;8.37;98.29
3968;BME280;9221;42.646;23.380;2023-02-28T01:09:48;94923.50;;;8.21;97.86
3968;BME280;9221;42.646;23.380;2023-02-28T01:12:13;94910.22;;;8.22;97.50
3968;BME280;9221;42.646;23.380;2023-02-28T01:14:38;94907.53;;;8.34;97.01
3968;BME280;9221;42.646;23.380;2023-02-28T01:17:05;95013.53;;;8.76;97.14
3968;BME280;9221;42.646;23.380;2023-02-28T01:19:30;94955.88;;;8.63;97.07
3968;BME280;9221;42.646;23.380;2023-02-28T01:21:56;94896.72;;;8.27;96.15
3968;BME280;9221;42.646;23.380;2023-02-28T01:24:21;94897.59;;;8.37;96.06
3968;BME280;9221;42.646;23.380;2023-02-28T01:26:46;94958.25;;;8.45;95.92
3968;BME280;9221;42.646;23.380;2023-02-28T01:29:12;94994.56;;;8.40;96.12
3968;BME280;9221;42.646;23.380;2023-02-28T01:31:37;94812.03;;;7.71;95.62
3968;BME280;9221;42.646;23.380;2023-02-28T01:34:03;94949.22;;;8.59;95.76
3968;BME280;9221;42.646;23.380;2023-02-28T01:36:28;94943.63;;;8.53;95.57
3968;BME280;9221;42.646;23.380;2023-02-28T01:38:54;94896.91;;;8.14;95.59
3968;BME280;9221;42.646;23.380;2023-02-28T01:41:24;94945.13;;;8.45;95.71
3968;BME280;9221;42.646;23.380;2023-02-28T01:44:02;94974.69;;;8.59;95.30
3968;BME280;9221;42.646;23.380;2023-02-28T01:46:30;94945.16;;;8.34;95.04
3968;BME280;9221;42.646;23.380;2023-02-28T01:48:58;95017.13;;;8.75;94.90
3968;BME280;9221;42.646;23.380;2023-02-28T01:51:49;94952.63;;;8.71;94.90
3968;BME280;9221;42.646;23.380;2023-02-28T01:54:26;94957.88;;;8.71;94.93
3968;BME280;9221;42.646;23.380;2023-02-28T01:56:56;94909.72;;;8.28;95.33
3968;BME280;9221;42.646;23.380;2023-02-28T01:59:34;94903.25;;;8.33;95.30
3968;BME280;9221;42.646;23.380;2023-02-28T02:02:01;94895.28;;;8.23;95.23
3968;BME280;9221;42.646;23.380;2023-02-28T02:04:32;94991.59;;;8.66;95.67
3968;BME280;9221;42.646;23.380;2023-02-28T02:07:00;94950.84;;;8.51;95.43
3968;BME280;9221;42.646;23.380;2023-02-28T02:09:25;94902.16;;;8.14;95.70
3968;BME280;9221;42.646;23.380;2023-02-28T02:11:51;94958.44;;;8.54;95.67
3968;BME280;9221;42.646;23.380;2023-02-28T02:14:43;94908.69;;;8.20;95.81
3968;BME280;9221;42.646;23.380;2023-02-28T02:17:22;94901.25;;;8.04;96.01
3968;BME280;9221;42.646;23.380;2023-02-28T02:20:22;94972.13;;;8.48;95.69
3968;BME280;9221;42.646;23.380;2023-02-28T02:36:25;94964.44;;;7.91;100.00
3968;BME280;9221;42.646;23.380;2023-02-28T02:39:04;94952.44;;;8.09;100.00
3968;BME280;9221;42.646;23.380;2023-02-28T02:46:47;94916.09;;;7.93;98.60
3968;BME280;9221;42.646;23.380;2023-02-28T02:49:21;94995.78;;;8.36;97.98
3968;BME280;9221;42.646;23.380;2023-02-28T02:51:49;94990.53;;;8.36;97.89
3968;BME280;9221;42.646;23.380;2023-02-28T02:54:26;94962.06;;;8.41;97.21
3968;BME280;9221;42.646;23.380;2023-02-28T02:56:56;94954.91;;;8.43;96.99
3968;BME280;9221;42.646;23.380;2023-02-28T02:59:24;94967.75;;;8.58;96.73
3968;BME280;9221;42.646;23.380;2023-02-28T03:01:56;94932.59;;;8.17;96.55
3968;BME280;9221;42.646;23.380;2023-02-28T03:04:24;94921.94;;;7.97;96.16
3968;BME280;9221;42.646;23.380;2023-02-28T03:06:51;94945.53;;;8.08;96.22
3968;BME280;9221;42.646;23.380;2023-02-28T03:09:23;94989.63;;;8.26;96.41
3968;BME280;9221;42.646;23.380;2023-02-28T03:11:51;94979.13;;;8.26;96.29
3968;BME280;9221;42.646;23.380;2023-02-28T03:17:11;95007.47;;;8.43;96.61
3968;BME280;9221;42.646;23.380;2023-02-28T03:25:29;95010.56;;;8.49;95.49
3968;BME280;9221;42.646;23.380;2023-02-28T03:28:05;95055.97;;;8.51;95.42
3968;BME280;9221;42.646;23.380;2023-02-28T03:30:41;95047.72;;;8.44;95.55
3968;BME280;9221;42.646;23.380;2023-02-28T03:33:27;95011.78;;;7.68;96.12
3968;BME280;9221;42.646;23.380;2023-02-28T03:35:59;94952.44;;;6.88;97.45
3968;BME280;9221;42.646;23.380;2023-02-28T03:38:53;95028.47;;;7.10;99.55
3968;BME280;9221;42.646;23.380;2023-02-28T03:41:23;95012.59;;;6.78;100.00
3968;BME280;9221;42.646;23.380;2023-02-28T03:43:59;95021.53;;;6.75;100.00
3968;BME280;9221;42.646;23.380;2023-02-28T03:46:31;95034.16;;;6.70;100.00
3968;BME280;9221;42.646;23.380;2023-02-28T03:49:06;94976.88;;;6.30;100.00
3968;BME280;9221;42.646;23.380;2023-02-28T03:51:35;95027.47;;;6.77;100.00
3968;BME280;9221;42.646;23.380;2023-02-28T03:54:09;95064.16;;;6.77;100.00
3968;BME280;9221;42.646;23.380;2023-02-28T03:56:50;94963.81;;;6.41;100.00
3968;BME280;9221;42.646;23.380;2023-02-28T03:59:53;95037.03;;;6.90;100.00
3968;BME280;9221;42.646;23.380;2023-02-28T04:02:21;95046.25;;;6.60;100.00
3968;BME280;9221;42.646;23.380;2023-02-28T04:04:46;94974.88;;;6.45;100.00
3968;BME280;9221;42.646;23.380;2023-02-28T04:07:14;94959.78;;;6.60;100.00
3968;BME280;9221;42.646;23.380;2023-02-28T04:09:40;94978.28;;;6.92;100.00
3968;BME280;9221;42.646;23.380;2023-02-28T04:12:06;95028.38;;;7.35;100.00
3968;BME280;9221;42.646;23.380;2023-02-28T04:14:31;95033.38;;;7.49;100.00
3968;BME280;9221;42.646;23.380;2023-02-28T04:16:56;95044.47;;;7.53;100.00
3968;BME280;9221;42.646;23.380;2023-02-28T04:19:22;95025.59;;;7.48;100.00
3968;BME280;9221;42.646;23.380;2023-02-28T04:21:51;94994.41;;;7.22;100.00
3968;BME280;9221;42.646;23.380;2023-02-28T04:24:22;95017.03;;;7.23;100.00
3968;BME280;9221;42.646;23.380;2023-02-28T04:26:50;94956.25;;;6.95;100.00
3968;BME280;9221;42.646;23.380;2023-02-28T04:29:22;95023.25;;;7.33;100.00
3968;BME280;9221;42.646;23.380;2023-02-28T04:31:48;95035.41;;;7.23;100.00
3968;BME280;9221;42.646;23.380;2023-02-28T04:34:14;95026.09;;;7.19;100.00
3968;BME280;9221;42.646;23.380;2023-02-28T04:36:39;94971.63;;;6.88;100.00
3968;BME280;9221;42.646;23.380;2023-02-28T04:39:05;95060.59;;;7.37;100.00
3968;BME280;9221;42.646;23.380;2023-02-28T04:41:30;95016.69;;;7.27;100.00
3968;BME280;9221;42.646;23.380;2023-02-28T04:43:56;94985.09;;;6.95;99.90
3968;BME280;9221;42.646;23.380;2023-02-28T04:46:22;95036.34;;;6.99;99.56
3968;BME280;9221;42.646;23.380;2023-02-28T04:48:48;95043.63;;;7.29;100.00
3968;BME280;9221;42.646;23.380;2023-02-28T04:51:15;95098.75;;;7.41;100.00
3968;BME280;9221;42.646;23.380;2023-02-28T04:53:41;94993.91;;;6.94;99.86
3968;BME280;9221;42.646;23.380;2023-02-28T04:56:07;95016.19;;;7.00;100.00
3968;BME280;9221;42.646;23.380;2023-02-28T04:58:33;95056.38;;;7.23;100.00
3968;BME280;9221;42.646;23.380;2023-02-28T05:01:15;94989.03;;;6.89;100.00
3968;BME280;9221;42.646;23.380;2023-02-28T05:03:42;95045.88;;;7.11;100.00
3968;BME280;9221;42.646;23.380;2023-02-28T05:06:09;94988.09;;;6.43;100.00
3968;BME280;9221;42.646;23.380;2023-02-28T05:08:34;95002.78;;;6.22;100.00
3968;BME280;9221;42.646;23.380;2023-02-28T05:11:00;94998.91;;;6.28;100.00
3968;BME280;9221;42.646;23.380;2023-02-28T05:13:27;95058.03;;;6.54;100.00
3968;BME280;9221;42.646;23.380;2023-02-28T05:15:52;95056.06;;;6.34;100.00
3968;BME280;9221;42.646;23.380;2023-02-28T05:18:18;95066.66;;;6.32;100.00
3968;BME280;9221;42.646;23.380;2023-02-28T05:20:43;95068.03;;;6.25;100.00
3968;BME280;9221;42.646;23.380;2023-02-28T05:23:11;95011.38;;;6.00;100.00
3968;BME280;9221;42.646;23.380;2023-02-28T05:25:38;95067.66;;;6.42;100.00
3968;BME280;9221;42.646;23.380;2023-02-28T05:28:04;95039.00;;;6.04;100.00
3968;BME280;9221;42.646;23.380;2023-02-28T05:30:30;95072.69;;;6.57;100.00
3968;BME280;9221;42.646;23.380;2023-02-28T05:32:57;95027.34;;;6.32;100.00
3968;BME280;9221;42.646;23.380;2023-02-28T05:35:23;95073.44;;;6.70;100.00
3968;BME280;9221;42.646;23.380;2023-02-28T05:37:48;95064.44;;;6.86;100.00
3968;BME280;9221;42.646;23.380;2023-02-28T05:40:14;95086.41;;;7.07;100.00
3968;BME280;9221;42.646;23.380;2023-02-28T05:42:40;95083.53;;;7.10;100.00
3968;BME280;9221;42.646;23.380;2023-02-28T05:45:06;94972.88;;;6.60;100.00
3968;BME280;9221;42.646;23.380;2023-02-28T05:47:32;95100.75;;;7.26;100.00
3968;BME280;9221;42.646;23.380;2023-02-28T05:49:57;95090.47;;;7.23;100.00
3968;BME280;9221;42.646;23.380;2023-02-28T05:52:23;95019.59;;;6.66;100.00
3968;BME280;9221;42.646;23.380;2023-02-28T05:54:48;95093.03;;;6.89;100.00
3968;BME280;9221;42.646;23.380;2023-02-28T05:57:14;95069.25;;;6.08;100.00
3968;BME280;9221;42.646;23.380;2023-02-28T05:59:39;95105.34;;;7.00;100.00
3968;BME280;9221;42.646;23.380;2023-02-28T06:02:06;94978.31;;;6.34;100.00
3968;BME280;9221;42.646;23.380;2023-02-28T06:04:35;95093.81;;;7.14;100.00
3968;BME280;9221;42.646;23.380;2023-02-28T06:07:00;95052.00;;;6.76;100.00
3968;BME280;9221;42.646;23.380;2023-02-28T06:09:26;95058.13;;;7.00;100.00
3968;BME280;9221;42.646;23.380;2023-02-28T06:11:52;95095.88;;;7.33;100.00
3968;BME280;9221;42.646;23.380;2023-02-28T06:14:18;95055.63;;;6.98;100.00
3968;BME280;9221;42.646;23.380;2023-02-28T06:16:44;95096.00;;;7.42;100.00
3968;BME280;9221;42.646;23.380;2023-02-28T06:19:10;94985.44;;;6.90;100.00
3968;BME280;9221;42.646;23.380;2023-02-28T06:21:36;95104.84;;;7.64;100.00
3968;BME280;9221;42.646;23.380;2023-02-28T06:24:02;95071.66;;;7.40;100.00
3968;BME280;9221;42.646;23.380;2023-02-28T06:26:28;95040.06;;;7.19;100.00
3968;BME280;9221;42.646;23.380;2023-02-28T06:28:54;95024.28;;;7.08;100.00
3968;BME280;9221;42.646;23.380;2023-02-28T06:31:20;95103.16;;;7.63;100.00
3968;BME280;9221;42.646;23.380;2023-02-28T06:33:46;95124.81;;;7.31;100.00
3968;BME280;9221;42.646;23.380;2023-02-28T06:36:14;95101.69;;;7.14;100.00
3968;BME280;9221;42.646;23.380;2023-02-28T06:38:40;95097.66;;;7.32;100.00
3968;BME280;9221;42.646;23.380;2023-02-28T06:41:06;95093.66;;;6.92;100.00
3968;BME280;9221;42.646;23.380;2023-02-28T06:43:37;95053.06;;;7.09;100.00
3968;BME280;9221;42.646;23.380;2023-02-28T06:46:07;95095.50;;;7.49;100.00
3968;BME280;9221;42.646;23.380;2023-02-28T06:48:33;95074.41;;;7.39;100.00
3968;BME280;9221;42.646;23.380;2023-02-28T06:51:15;95045.91;;;7.45;100.00
3968;BME280;9221;42.646;23.380;2023-02-28T06:53:41;95098.94;;;7.83;99.77
3968;BME280;9221;42.646;23.380;2023-02-28T06:56:09;95128.91;;;8.03;99.33
3968;BME280;9221;42.646;23.380;2023-02-28T06:58:35;95127.47;;;8.22;99.54
3968;BME280;9221;42.646;23.380;2023-02-28T07:01:01;95117.16;;;8.30;99.05
3968;BME280;9221;42.646;23.380;2023-02-28T07:03:27;95201.97;;;8.21;98.32
3968;BME280;9221;42.646;23.380;2023-02-28T07:05:52;95117.16;;;8.30;98.12
3968;BME280;9221;42.646;23.380;2023-02-28T07:08:18;95102.91;;;8.44;98.21
3968;BME280;9221;42.646;23.380;2023-02-28T07:10:43;95144.72;;;8.58;97.31
3968;BME280;9221;42.646;23.380;2023-02-28T07:13:09;95106.88;;;8.38;96.68
3968;BME280;9221;42.646;23.380;2023-02-28T07:15:36;95059.09;;;8.33;96.69
3968;BME280;9221;42.646;23.380;2023-02-28T07:18:01;95105.84;;;8.62;96.12
3968;BME280;9221;42.646;23.380;2023-02-28T07:20:28;95064.09;;;8.36;95.65
3968;BME280;9221;42.646;23.380;2023-02-28T07:22:54;95140.03;;;8.62;95.48
3968;BME280;9221;42.646;23.380;2023-02-28T07:25:23;95128.06;;;8.69;96.09
3968;BME280;9221;42.646;23.380;2023-02-28T07:27:48;95052.03;;;8.34;95.74
3968;BME280;9221;42.646;23.380;2023-02-28T07:30:14;95134.06;;;8.92;95.87
3968;BME280;9221;42.646;23.380;2023-02-28T07:32:40;95119.06;;;9.04;96.01
3968;BME280;9221;42.646;23.380;2023-02-28T07:35:05;95086.47;;;8.95;95.34
3968;BME280;9221;42.646;23.380;2023-02-28T07:37:31;95085.78;;;9.14;95.50
3968;BME280;9221;42.646;23.380;2023-02-28T07:40:05;95111.44;;;9.43;95.38
3968;BME280;9221;42.646;23.380;2023-02-28T07:42:34;95144.50;;;9.67;94.63
3968;BME280;9221;42.646;23.380;2023-02-28T07:44:59;95044.03;;;9.31;93.76
3968;BME280;9221;42.646;23.380;2023-02-28T07:47:25;95045.84;;;9.09;93.56
3968;BME280;9221;42.646;23.380;2023-02-28T07:49:50;95048.41;;;9.21;94.17
3968;BME280;9221;42.646;23.380;2023-02-28T07:52:16;95047.91;;;9.27;93.99
3968;BME280;9221;42.646;23.380;2023-02-28T07:54:41;95151.91;;;9.52;94.61
3968;BME280;9221;42.646;23.380;2023-02-28T07:57:07;95098.09;;;9.35;95.60
3968;BME280;9221;42.646;23.380;2023-02-28T07:59:33;95105.88;;;9.46;96.41
3968;BME280;9221;42.646;23.380;2023-02-28T08:01:58;95040.69;;;9.29;96.91
3968;BME280;9221;42.646;23.380;2023-02-28T08:04:24;95140.22;;;9.97;96.51
3968;BME280;9221;42.646;23.380;2023-02-28T08:06:50;95136.88;;;9.95;95.67
3968;BME280;9221;42.646;23.380;2023-02-28T08:09:18;95055.53;;;9.61;95.45
3968;BME280;9221;42.646;23.380;2023-02-28T08:11:44;95098.63;;;10.01;95.65
3968;BME280;9221;42.646;23.380;2023-02-28T08:14:09;95106.88;;;10.27;95.75
3968;BME280;9221;42.646;23.380;2023-02-28T08:16:35;95104.75;;;10.11;94.96
3968;BME280;9221;42.646;23.380;2023-02-28T08:19:00;95080.63;;;10.15;94.84
3968;BME280;9221;42.646;23.380;2023-02-28T08:21:26;95100.69;;;10.47;94.96
3968;BME280;9221;42.646;23.380;2023-02-28T08:23:51;95100.00;;;10.45;95.27
3968;BME280;9221;42.646;23.380;2023-02-28T08:26:18;95107.91;;;10.36;95.46
3968;BME280;9221;42.646;23.380;2023-02-28T08:28:43;95053.59;;;10.13;95.21
3968;BME280;9221;42.646;23.380;2023-02-28T08:31:14;95134.31;;;10.65;94.81
3968;BME280;9221;42.646;23.380;2023-02-28T08:33:40;95165.84;;;10.76;94.30
3968;BME280;9221;42.646;23.380;2023-02-28T08:36:07;95097.94;;;10.78;94.14
3968;BME280;9221;42.646;23.380;2023-02-28T08:38:33;95096.56;;;10.84;93.58
3968;BME280;9221;42.646;23.380;2023-02-28T08:41:04;95116.69;;;11.14;92.94
3968;BME280;9221;42.646;23.380;2023-02-28T08:43:33;95114.59;;;11.28;91.88
3968;BME280;9221;42.646;23.380;2023-02-28T08:45:59;95056.53;;;10.98;90.97
3968;BME280;9221;42.646;23.380;2023-02-28T08:48:28;95116.75;;;11.52;90.76
3968;BME280;9221;42.646;23.380;2023-02-28T08:50:55;95164.00;;;11.65;90.43
3968;BME280;9221;42.646;23.380;2023-02-28T08:53:21;95059.75;;;11.49;89.40
3968;BME280;9221;42.646;23.380;2023-02-28T08:55:46;95044.41;;;11.25;88.04
3968;BME280;9221;42.646;23.380;2023-02-28T08:58:11;95062.63;;;11.18;88.02
3968;BME280;9221;42.646;23.380;2023-02-28T09:00:37;95066.13;;;11.09;88.89
3968;BME280;9221;42.646;23.380;2023-02-28T09:03:02;95061.53;;;11.11;89.62
3968;BME280;9221;42.646;23.380;2023-02-28T09:05:28;95051.22;;;11.28;89.25
3968;BME280;9221;42.646;23.380;2023-02-28T09:07:55;95086.88;;;11.51;88.80
3968;BME280;9221;42.646;23.380;2023-02-28T09:10:20;95053.94;;;11.46;88.70
3968;BME280;9221;42.646;23.380;2023-02-28T09:12:45;95120.22;;;12.10;88.24
3968;BME280;9221;42.646;23.380;2023-02-28T09:15:12;95113.00;;;12.02;87.89
3968;BME280;9221;42.646;23.380;2023-02-28T09:17:38;95063.00;;;11.71;87.33
3968;BME280;9221;42.646;23.380;2023-02-28T09:20:04;95055.78;;;11.73;87.63
3968;BME280;9221;42.646;23.380;2023-02-28T09:22:30;95110.34;;;12.02;86.81
3968;BME280;9221;42.646;23.380;2023-02-28T09:24:55;95103.75;;;12.16;87.71
3968;BME280;9221;42.646;23.380;2023-02-28T09:27:21;95046.75;;;12.04;86.35
3968;BME280;9221;42.646;23.380;2023-02-28T09:29:46;95078.91;;;12.27;85.13
3968;BME280;9221;42.646;23.380;2023-02-28T09:32:11;95056.00;;;11.90;85.52
3968;BME280;9221;42.646;23.380;2023-02-28T09:34:37;95130.81;;;11.90;85.39
3968;BME280;9221;42.646;23.380;2023-02-28T09:37:03;95058.31;;;11.65;86.66
3968;BME280;9221;42.646;23.380;2023-02-28T09:39:28;95071.53;;;11.65;87.03
3968;BME280;9221;42.646;23.380;2023-02-28T09:41:55;95163.63;;;11.88;86.83
3968;BME280;9221;42.646;23.380;2023-02-28T09:44:35;95095.22;;;11.94;86.36
3968;BME280;9221;42.646;23.380;2023-02-28T09:49:49;95107.56;;;11.94;85.92
3968;BME280;9221;42.646;23.380;2023-02-28T09:52:19;95093.03;;;11.80;85.45
3968;BME280;9221;42.646;23.380;2023-02-28T09:54:46;95051.59;;;11.33;85.87
3968;BME280;9221;42.646;23.380;2023-02-28T09:57:28;95073.19;;;11.66;86.62
3968;BME280;9221;42.646;23.380;2023-02-28T10:05:23;95123.09;;;11.69;85.08
3968;BME280;9221;42.646;23.380;2023-02-28T10:10:46;95120.09;;;11.54;85.35
3968;BME280;9221;42.646;23.380;2023-02-28T10:15:39;95030.69;;;11.12;86.74
3968;BME280;9221;42.646;23.380;2023-02-28T10:18:11;95045.06;;;11.37;86.55
3968;BME280;9221;42.646;23.380;2023-02-28T10:20:39;95020.91;;;11.32;85.19
3968;BME280;9221;42.646;23.380;2023-02-28T10:23:25;95033.16;;;11.23;85.95
3968;BME280;9221;42.646;23.380;2023-02-28T10:25:59;95027.56;;;11.36;87.45
3968;BME280;9221;42.646;23.380;2023-02-28T10:28:26;95087.00;;;11.88;86.14
3968;BME280;9221;42.646;23.380;2023-02-28T10:30:54;95095.13;;;12.14;86.35
3968;BME280;9221;42.646;23.380;2023-02-28T10:33:24;94981.25;;;11.69;83.89
3968;BME280;9221;42.646;23.380;2023-02-28T10:35:51;94994.34;;;12.53;81.51
3968;BME280;9221;42.646;23.380;2023-02-28T10:38:29;95024.13;;;12.73;79.09
3968;BME280;9221;42.646;23.380;2023-02-28T10:41:09;95061.19;;;13.17;79.20
3968;BME280;9221;42.646;23.380;2023-02-28T10:43:35;95056.47;;;13.47;78.54
3968;BME280;9221;42.646;23.380;2023-02-28T10:46:02;95080.84;;;13.33;77.89
3968;BME280;9221;42.646;23.380;2023-02-28T10:48:34;95061.19;;;13.62;78.79
3968;BME280;9221;42.646;23.380;2023-02-28T10:51:02;94997.63;;;13.70;76.69
3968;BME280;9221;42.646;23.380;2023-02-28T10:53:58;95052.47;;;14.12;75.16
3968;BME280;9221;42.646;23.380;2023-02-28T10:56:24;95035.16;;;13.92;74.42
3968;BME280;9221;42.646;23.380;2023-02-28T11:03:47;94968.06;;;12.96;76.05
3968;BME280;9221;42.646;23.380;2023-02-28T11:06:31;95022.47;;;13.16;76.55
3968;BME280;9221;42.646;23.380;2023-02-28T11:09:03;94973.16;;;12.71;76.90
3968;BME280;9221;42.646;23.380;2023-02-28T11:11:30;94924.94;;;11.97;78.11
3968;BME280;9221;42.646;23.380;2023-02-28T11:14:06;95044.91;;;12.68;79.71
3968;BME280;9221;42.646;23.380;2023-02-28T11:16:41;95027.31;;;12.77;79.65
3968;BME280;9221;42.646;23.380;2023-02-28T11:19:17;95054.31;;;13.25;78.77
3968;BME280;9221;42.646;23.380;2023-02-28T11:21:50;95011.25;;;13.23;77.17
3968;BME280;9221;42.646;23.380;2023-02-28T11:24:23;95021.19;;;13.47;78.04
3968;BME280;9221;42.646;23.380;2023-02-28T11:26:49;95012.19;;;13.66;76.98
3968;BME280;9221;42.646;23.380;2023-02-28T11:29:30;95024.66;;;13.47;76.78
3968;BME280;9221;42.646;23.380;2023-02-28T11:34:37;95022.72;;;12.61;78.62
3968;BME280;9221;42.646;23.380;2023-02-28T11:37:04;95009.22;;;12.72;79.09
3968;BME280;9221;42.646;23.380;2023-02-28T11:39:32;94973.28;;;12.43;79.87
3968;BME280;9221;42.646;23.380;2023-02-28T11:44:55;95023.19;;;13.00;79.63
3968;BME280;9221;42.646;23.380;2023-02-28T11:48:11;94945.91;;;12.52;79.36
3968;BME280;9221;42.646;23.380;2023-02-28T12:07:29;94993.72;;;12.77;77.46
3968;BME280;9221;42.646;23.380;2023-02-28T12:21:01;95020.38;;;13.02;77.36
3968;BME280;9221;42.646;23.380;2023-02-28T12:23:21;95028.13;;;12.77;78.31
3968;BME280;9221;42.646;23.380;2023-02-28T12:28:38;94993.41;;;12.36;79.02
3968;BME280;9221;42.646;23.380;2023-02-28T12:31:19;95015.91;;;12.40;79.89
3968;BME280;9221;42.646;23.380;2023-02-28T12:34:09;94998.38;;;12.39;80.40
3968;BME280;9221;42.646;23.380;2023-02-28T12:36:37;94948.31;;;11.92;80.63
3968;BME280;9221;42.646;23.380;2023-02-28T12:44:07;94989.00;;;12.45;80.43
3968;BME280;9221;42.646;23.380;2023-02-28T12:46:38;94944.03;;;12.27;79.99
3968;BME280;9221;42.646;23.380;2023-02-28T12:49:10;94991.63;;;12.63;78.70
3968;BME280;9221;42.646;23.380;2023-02-28T12:51:38;94947.66;;;12.44;78.85
3968;BME280;9221;42.646;23.380;2023-02-28T12:59:57;94989.66;;;12.65;78.08
3968;BME280;9221;42.646;23.380;2023-02-28T13:10:43;94940.97;;;11.67;80.14
3968;BME280;9221;42.646;23.380;2023-02-28T13:13:17;95026.44;;;12.04;80.62
3968;BME280;9221;42.646;23.380;2023-02-28T13:18:43;95032.72;;;12.03;80.99
3968;BME280;9221;42.646;23.380;2023-02-28T13:21:21;94988.06;;;12.00;80.41
3968;BME280;9221;42.646;23.380;2023-02-28T13:34:31;95027.88;;;11.89;79.25
3968;BME280;9221;42.646;23.380;2023-02-28T13:39:57;94985.41;;;11.72;80.73
3968;BME280;9221;42.646;23.380;2023-02-28T13:47:43;94919.56;;;11.05;81.30
3968;BME280;9221;42.646;23.380;2023-02-28T14:04:46;94999.44;;;11.45;81.89
3968;BME280;9221;42.646;23.380;2023-02-28T14:07:23;94963.41;;;11.26;82.11
3968;BME280;9221;42.646;23.380;2023-02-28T14:10:24;94979.22;;;11.26;82.73
3968;BME280;9221;42.646;23.380;2023-02-28T14:18:01;94993.19;;;11.08;84.25
3968;BME280;9221;42.646;23.380;2023-02-28T14:20:31;94856.75;;;10.33;84.29
3968;BME280;9221;42.646;23.380;2023-02-28T14:23:12;94916.94;;;10.58;85.06
3968;BME280;9221;42.646;23.380;2023-02-28T14:34:13;94993.78;;;11.02;85.21
3968;BME280;9221;42.646;23.380;2023-02-28T14:36:42;94943.19;;;10.49;85.79
3968;BME280;9221;42.646;23.380;2023-02-28T14:39:20;94949.31;;;10.40;86.13
3968;BME280;9221;42.646;23.380;2023-02-28T14:41:46;94971.34;;;10.59;86.81
3968;BME280;9221;42.646;23.380;2023-02-28T14:44:27;95000.78;;;10.64;86.78
3968;BME280;9221;42.646;23.380;2023-02-28T14:46:54;94988.56;;;10.53;87.17
3968;BME280;9221;42.646;23.380;2023-02-28T14:49:28;94982.19;;;10.46;87.79
3968;BME280;9221;42.646;23.380;2023-02-28T14:52:12;95014.53;;;10.38;87.98
3968;BME280;9221;42.646;23.380;2023-02-28T14:54:40;95021.81;;;10.25;87.93
3968;BME280;9221;42.646;23.380;2023-02-28T14:57:06;94941.09;;;10.14;87.33
3968;BME280;9221;42.646;23.380;2023-02-28T14:59:45;94924.84;;;9.99;88.07
3968;BME280;9221;42.646;23.380;2023-02-28T15:02:25;94923.06;;;10.09;87.67
3968;BME280;9221;42.646;23.380;2023-02-28T15:04:58;95013.84;;;10.46;87.19
3968;BME280;9221;42.646;23.380;2023-02-28T15:07:25;94949.16;;;10.52;86.49
3968;BME280;9221;42.646;23.380;2023-02-28T15:10:16;94989.66;;;10.70;86.38
3968;BME280;9221;42.646;23.380;2023-02-28T15:12:53;94956.09;;;10.43;86.44
3968;BME280;9221;42.646;23.380;2023-02-28T15:15:23;94913.22;;;10.11;86.13
3968;BME280;9221;42.646;23.380;2023-02-28T15:17:54;94962.63;;;10.48;86.33
3968;BME280;9221;42.646;23.380;2023-02-28T15:20:21;95033.09;;;10.56;86.23
3968;BME280;9221;42.646;23.380;2023-02-28T15:22:50;95001.31;;;10.19;86.51
3968;BME280;9221;42.646;23.380;2023-02-28T15:25:19;94960.81;;;10.29;87.02
3968;BME280;9221;42.646;23.380;2023-02-28T15:27:48;94985.75;;;10.15;87.80
3968;BME280;9221;42.646;23.380;2023-02-28T15:30:25;94982.84;;;10.09;88.49
3968;BME280;9221;42.646;23.380;2023-02-28T15:33:18;94996.72;;;10.21;88.92
3968;BME280;9221;42.646;23.380;2023-02-28T15:35:43;94987.97;;;10.01;88.81
3968;BME280;9221;42.646;23.380;2023-02-28T15:38:24;94994.22;;;10.09;89.26
3968;BME280;9221;42.646;23.380;2023-02-28T15:43:29;95023.06;;;10.21;88.99
3968;BME280;9221;42.646;23.380;2023-02-28T15:53:37;95027.81;;;10.17;87.80
3968;BME280;9221;42.646;23.380;2023-02-28T15:56:16;94933.84;;;9.77;87.88
3968;BME280;9221;42.646;23.380;2023-02-28T15:58:46;94988.09;;;9.99;88.07
3968;BME280;9221;42.646;23.380;2023-02-28T16:01:29;94931.66;;;9.72;87.81
3968;BME280;9221;42.646;23.380;2023-02-28T16:03:59;94944.38;;;9.67;88.86
3968;BME280;9221;42.646;23.380;2023-02-28T16:06:46;94996.97;;;9.98;88.89
3968;BME280;9221;42.646;23.380;2023-02-28T16:09:15;94994.66;;;10.14;88.91